createdAt,value
2023-04-03T00:01:26.564Z,2.40
2023-04-03T00:02:59.761Z,1.80
2023-04-03T00:04:32.757Z,1.55
2023-04-03T00:06:07.759Z,1.80
2023-04-03T00:07:40.816Z,1.75
2023-04-03T00:09:14.481Z,1.88
2023-04-03T00:10:46.416Z,2.08
2023-04-03T00:12:19.425Z,1.60
2023-04-03T00:13:53.912Z,1.70
2023-04-03T00:15:26.890Z,1.80
2023-04-03T00:16:59.877Z,1.85
2023-04-03T00:18:32.273Z,1.70
2023-04-03T00:20:05.953Z,1.55
2023-04-03T00:21:38.800Z,1.88
2023-04-03T00:23:11.825Z,1.98
2023-04-03T00:24:43.790Z,1.75
2023-04-03T00:26:16.750Z,2.22
2023-04-03T00:27:49.679Z,1.80
2023-04-03T00:29:24.191Z,1.80
2023-04-03T00:30:57.106Z,1.80
2023-04-03T00:32:30.090Z,1.58
2023-04-03T00:34:03.280Z,2.17
2023-04-03T00:35:37.119Z,1.77
2023-04-03T00:37:09.130Z,1.65
2023-04-03T00:38:42.069Z,1.60
2023-04-03T00:40:16.970Z,1.70
2023-04-03T00:41:49.940Z,1.98
2023-04-03T00:43:24.619Z,1.90
2023-04-03T00:45:37.912Z,1.73
2023-04-03T00:47:13.288Z,1.80
2023-04-03T00:48:47.861Z,1.80
2023-04-03T00:50:20.373Z,2.08
2023-04-03T00:51:53.686Z,2.15
2023-04-03T00:53:31.783Z,1.80
2023-04-03T00:55:07.132Z,1.70
2023-04-03T00:56:40.849Z,1.85
2023-04-03T00:58:16.543Z,1.80
2023-04-03T00:59:53.907Z,1.70
2023-04-03T01:01:30.748Z,1.90
2023-04-03T01:03:03.743Z,1.80
2023-04-03T01:04:38.950Z,1.95
2023-04-03T01:06:12.025Z,1.88
2023-04-03T01:07:45.522Z,1.92
2023-04-03T01:09:18.483Z,2.20
2023-04-03T01:10:51.544Z,1.80
2023-04-03T01:12:25.770Z,1.50
2023-04-03T01:13:58.727Z,1.70
2023-04-03T01:15:36.005Z,1.70
2023-04-03T01:19:15.328Z,1.73
2023-04-03T01:21:20.784Z,1.60
2023-04-03T01:23:00.989Z,1.98
2023-04-03T01:24:37.134Z,1.65
2023-04-03T01:26:11.078Z,1.50
2023-04-03T01:27:44.021Z,1.60
2023-04-03T01:29:16.059Z,1.60
2023-04-03T01:30:53.163Z,1.67
2023-04-03T01:32:27.429Z,1.48
2023-04-03T01:34:00.383Z,1.95
2023-04-03T01:35:32.317Z,1.70
2023-04-03T01:37:05.525Z,1.83
2023-04-03T01:38:38.485Z,1.48
2023-04-03T01:40:12.071Z,1.48
2023-04-03T01:41:45.898Z,1.60
2023-04-03T01:43:17.919Z,1.55
2023-04-03T01:44:50.858Z,1.70
2023-04-03T01:46:24.181Z,1.80
2023-04-03T01:47:58.447Z,1.80
2023-04-03T01:49:31.335Z,1.60
2023-04-03T01:51:03.407Z,1.85
2023-04-03T01:52:36.418Z,1.90
2023-04-03T01:54:09.399Z,1.90
2023-04-03T01:55:42.357Z,1.80
2023-04-03T01:57:16.234Z,1.70
2023-04-03T01:58:49.299Z,1.73
2023-04-03T02:00:22.438Z,1.73
2023-04-03T02:01:55.642Z,1.52
2023-04-03T02:03:28.881Z,1.60
2023-04-03T02:05:01.822Z,1.73
2023-04-03T02:06:34.704Z,1.52
2023-04-03T02:08:07.896Z,1.40
2023-04-03T02:09:40.779Z,1.58
2023-04-03T02:11:13.853Z,1.65
2023-04-03T02:12:46.240Z,1.67
2023-04-03T02:14:19.189Z,2.00
2023-04-03T02:15:52.210Z,1.73
2023-04-03T02:17:25.134Z,1.88
2023-04-03T02:18:59.482Z,1.60
2023-04-03T02:20:32.415Z,1.80
2023-04-03T02:22:06.092Z,1.67
2023-04-03T02:23:39.048Z,1.55
2023-04-03T02:25:12.770Z,1.60
2023-04-03T02:26:45.809Z,1.50
2023-04-03T02:28:18.727Z,1.60
2023-04-03T02:29:51.670Z,1.60
2023-04-03T02:31:25.175Z,1.83
2023-04-03T02:32:57.409Z,1.50
2023-04-03T02:34:31.995Z,1.60
2023-04-03T02:36:06.593Z,1.80
2023-04-03T02:37:39.988Z,1.60
2023-04-03T02:40:45.365Z,1.50
2023-04-03T02:42:18.324Z,1.73
2023-04-03T02:43:51.277Z,1.52
2023-04-03T02:45:24.209Z,1.42
2023-04-03T02:46:57.193Z,1.75
2023-04-03T02:48:30.629Z,1.65
2023-04-03T02:53:09.769Z,1.70
2023-04-03T02:54:42.986Z,1.50
2023-04-03T02:56:14.976Z,1.88
2023-04-03T02:57:48.012Z,1.67
2023-04-03T02:59:20.926Z,1.70
2023-04-03T03:00:54.010Z,1.70
2023-04-03T03:02:27.131Z,1.63
2023-04-03T03:04:00.402Z,1.88
2023-04-03T03:05:33.787Z,1.90
2023-04-03T03:08:40.429Z,2.08
2023-04-03T03:10:13.366Z,1.77
2023-04-03T03:11:46.371Z,1.70
2023-04-03T03:13:19.432Z,2.00
2023-04-03T03:14:52.744Z,1.70
2023-04-03T03:16:26.007Z,1.90
2023-04-03T03:19:32.078Z,1.75
2023-04-03T03:21:05.942Z,1.92
2023-04-03T03:22:38.937Z,1.77
2023-04-03T03:24:13.038Z,1.67
2023-04-03T03:25:46.340Z,2.00
2023-04-03T03:27:19.380Z,2.10
2023-04-03T03:28:52.531Z,2.40
2023-04-03T03:30:26.132Z,2.10
2023-04-03T03:31:59.170Z,2.10
2023-04-03T03:33:32.361Z,2.13
2023-04-03T03:35:05.783Z,1.90
2023-04-03T03:38:13.525Z,2.08
2023-04-03T03:39:46.446Z,1.98
2023-04-03T03:41:19.418Z,1.92
2023-04-03T03:42:52.498Z,2.20
2023-04-03T03:44:25.796Z,2.47
2023-04-03T03:45:59.305Z,2.00
2023-04-03T03:47:32.266Z,2.25
2023-04-03T03:49:05.275Z,2.00
2023-04-03T03:50:38.417Z,2.10
2023-04-03T03:52:12.910Z,2.00
2023-04-03T03:53:45.872Z,1.88
2023-04-03T03:55:19.018Z,2.00
2023-04-03T03:56:52.066Z,2.05
2023-04-03T03:58:25.227Z,1.95
2023-04-03T03:59:58.276Z,2.30
2023-04-03T04:01:30.937Z,2.33
2023-04-03T04:03:04.291Z,2.58
2023-04-03T04:06:10.371Z,2.65
2023-04-03T04:07:44.702Z,2.38
2023-04-03T04:09:17.805Z,2.40
2023-04-03T04:10:50.910Z,2.50
2023-04-03T04:12:23.927Z,2.60
2023-04-03T04:13:56.975Z,2.22
2023-04-03T04:15:30.116Z,2.80
2023-04-03T04:17:03.845Z,4.15
2023-04-03T04:18:36.763Z,2.75
2023-04-03T04:20:09.619Z,2.80
2023-04-03T04:21:43.341Z,7.72
2023-04-03T04:23:18.630Z,5.45
2023-04-03T04:24:51.505Z,2.80
2023-04-03T04:26:25.139Z,2.45
2023-04-03T04:27:58.037Z,2.75
2023-04-03T04:29:36.129Z,2.63
2023-04-03T04:31:09.115Z,2.83
2023-04-03T04:32:41.130Z,2.53
2023-04-03T04:34:14.904Z,2.30
2023-04-03T04:35:49.746Z,2.95
2023-04-03T04:37:22.883Z,2.72
2023-04-03T04:38:58.042Z,2.90
2023-04-03T04:40:31.256Z,3.58
2023-04-03T04:42:04.300Z,3.50
2023-04-03T04:43:37.305Z,2.85
2023-04-03T04:45:10.841Z,2.90
2023-04-03T04:46:43.840Z,2.55
2023-04-03T04:48:17.075Z,2.65
2023-04-03T04:49:50.034Z,2.85
2023-04-03T04:51:23.011Z,3.03
2023-04-03T04:52:56.126Z,2.70
2023-04-03T04:54:30.420Z,3.17
2023-04-03T04:56:03.539Z,3.53
2023-04-03T04:57:37.481Z,2.60
2023-04-03T04:59:10.566Z,3.15
2023-04-03T05:00:43.606Z,2.72
2023-04-03T05:02:16.585Z,2.75
2023-04-03T05:03:49.574Z,2.40
2023-04-03T05:05:23.259Z,2.55
2023-04-03T05:06:56.186Z,2.90
2023-04-03T05:08:29.208Z,3.03
2023-04-03T05:10:04.462Z,2.70
2023-04-03T05:11:37.489Z,2.83
2023-04-03T05:13:10.642Z,2.80
2023-04-03T05:14:43.672Z,2.75
2023-04-03T05:16:16.715Z,2.97
2023-04-03T05:17:49.752Z,2.70
2023-04-03T05:19:23.273Z,2.83
2023-04-03T05:20:56.208Z,2.70
2023-04-03T05:22:29.189Z,2.80
2023-04-03T05:24:03.645Z,3.05
2023-04-03T05:25:39.498Z,2.80
2023-04-03T05:27:12.542Z,2.63
2023-04-03T05:28:45.684Z,2.67
2023-04-03T05:30:19.194Z,2.80
2023-04-03T05:33:27.061Z,2.80
2023-04-03T05:35:01.290Z,3.03
2023-04-03T05:36:34.374Z,2.90
2023-04-03T05:38:07.497Z,2.78
2023-04-03T05:39:41.733Z,2.83
2023-04-03T05:41:16.531Z,2.70
2023-04-03T05:42:49.522Z,2.42
2023-04-03T05:44:22.516Z,3.00
2023-04-03T05:45:55.514Z,2.90
2023-04-03T05:47:28.497Z,2.80
2023-04-03T05:49:01.473Z,2.67
2023-04-03T05:50:34.490Z,2.80
2023-04-03T05:52:08.065Z,2.63
2023-04-03T05:53:41.198Z,2.50
2023-04-03T05:55:14.152Z,2.47
2023-04-03T05:56:48.472Z,2.47
2023-04-03T05:58:21.407Z,2.85
2023-04-03T05:59:54.364Z,2.50
2023-04-03T06:01:27.435Z,2.42
2023-04-03T06:03:00.627Z,2.50
2023-04-03T06:04:33.730Z,2.97
2023-04-03T06:06:07.843Z,3.05
2023-04-03T06:07:40.946Z,3.13
2023-04-03T06:09:13.899Z,2.50
2023-04-03T06:10:47.368Z,2.53
2023-04-03T06:13:54.747Z,2.40
2023-04-03T06:15:27.693Z,2.33
2023-04-03T06:17:01.217Z,2.15
2023-04-03T06:18:34.166Z,2.30
2023-04-03T06:20:08.709Z,2.60
2023-04-03T06:21:41.604Z,2.30
2023-04-03T06:23:14.658Z,2.58
2023-04-03T06:24:47.926Z,2.35
2023-04-03T06:26:21.744Z,2.60
2023-04-03T06:27:56.588Z,2.30
2023-04-03T06:29:29.567Z,2.67
2023-04-03T06:31:02.793Z,3.03
2023-04-03T06:32:36.022Z,2.72
2023-04-03T06:34:09.805Z,2.67
2023-04-03T06:35:42.800Z,3.00
2023-04-03T06:37:23.454Z,2.33
2023-04-03T06:38:56.469Z,2.58
2023-04-03T06:40:29.458Z,2.60
2023-04-03T06:42:02.430Z,2.30
2023-04-03T06:43:37.104Z,2.75
2023-04-03T06:45:12.348Z,2.65
2023-04-03T06:46:46.550Z,2.40
2023-04-03T06:48:19.646Z,2.50
2023-04-03T06:49:52.708Z,2.65
2023-04-03T06:51:28.497Z,2.30
2023-04-03T06:53:01.915Z,2.78
2023-04-03T06:56:08.209Z,2.53
2023-04-03T06:59:15.858Z,2.10
2023-04-03T07:00:48.977Z,3.08
2023-04-03T07:02:22.838Z,2.40
2023-04-03T07:03:56.477Z,2.17
2023-04-03T07:05:29.631Z,2.47
2023-04-03T07:07:02.540Z,2.03
2023-04-03T07:08:36.171Z,2.20
2023-04-03T07:10:10.598Z,2.60
2023-04-03T07:11:43.672Z,2.20
2023-04-03T07:13:16.673Z,2.22
2023-04-03T07:14:51.029Z,3.28
2023-04-03T07:16:24.030Z,2.10
2023-04-03T07:17:57.115Z,2.35
2023-04-03T07:19:30.458Z,2.13
2023-04-03T07:22:36.511Z,2.05
2023-04-03T07:24:12.957Z,2.20
2023-04-03T07:25:50.172Z,2.28
2023-04-03T07:27:23.319Z,2.20
2023-04-03T07:28:56.319Z,2.25
2023-04-03T07:30:30.631Z,2.20
2023-04-03T07:32:03.760Z,2.85
2023-04-03T07:33:38.036Z,2.25
2023-04-03T07:35:11.323Z,2.20
2023-04-03T07:36:44.396Z,2.20
2023-04-03T07:38:17.479Z,2.10
2023-04-03T07:39:50.669Z,2.08
2023-04-03T07:41:24.057Z,1.95
2023-04-03T07:42:57.888Z,2.20
2023-04-03T07:44:31.112Z,2.20
2023-04-03T07:46:07.365Z,2.30
2023-04-03T07:47:40.434Z,2.28
2023-04-03T07:49:13.385Z,2.58
2023-04-03T07:50:47.416Z,2.55
2023-04-03T07:52:20.366Z,2.22
2023-04-03T07:53:53.480Z,2.20
2023-04-03T07:55:26.711Z,2.10
2023-04-03T07:56:59.778Z,2.40
2023-04-03T07:58:32.979Z,2.00
2023-04-03T08:00:07.322Z,2.30
2023-04-03T08:01:41.952Z,2.30
2023-04-03T08:03:17.730Z,2.22
2023-04-03T08:04:51.251Z,2.22
2023-04-03T08:06:37.490Z,2.30
2023-04-03T08:08:21.465Z,2.03
2023-04-03T08:09:54.787Z,2.20
2023-04-03T08:11:28.310Z,2.20
2023-04-03T08:13:01.990Z,2.00
2023-04-03T08:14:36.304Z,2.35
2023-04-03T08:16:11.308Z,2.70
2023-04-03T08:17:45.741Z,2.40
2023-04-03T08:19:25.936Z,2.08
2023-04-03T08:20:59.365Z,2.00
2023-04-03T08:22:32.602Z,2.05
2023-04-03T08:24:06.855Z,2.00
2023-04-03T08:25:40.461Z,2.05
2023-04-03T08:27:13.503Z,2.22
2023-04-03T08:28:46.639Z,2.33
2023-04-03T08:30:19.959Z,2.00
2023-04-03T08:31:53.458Z,2.22
2023-04-03T08:35:01.328Z,1.80
2023-04-03T08:36:34.411Z,1.98
2023-04-03T08:38:07.429Z,1.90
2023-04-03T08:39:40.373Z,2.00
2023-04-03T08:41:18.093Z,2.20
2023-04-03T08:43:01.738Z,2.05
2023-04-03T08:44:46.478Z,2.00
2023-04-03T08:46:21.329Z,2.30
2023-04-03T08:48:01.634Z,2.28
2023-04-03T08:49:43.980Z,2.53
2023-04-03T08:51:19.633Z,1.92
2023-04-03T08:52:54.981Z,2.05
2023-04-03T08:54:34.104Z,2.08
2023-04-03T08:56:12.060Z,2.00
2023-04-03T08:57:47.612Z,2.05
2023-04-03T08:59:29.982Z,2.00
2023-04-03T09:01:05.293Z,2.10
2023-04-03T09:02:46.365Z,1.88
2023-04-03T09:04:21.014Z,1.90
2023-04-03T09:05:59.537Z,2.00
2023-04-03T09:07:38.447Z,1.88
2023-04-03T09:09:16.799Z,2.10
2023-04-03T09:10:52.009Z,1.75
2023-04-03T09:12:30.780Z,1.75
2023-04-03T09:14:09.849Z,1.63
2023-04-03T09:15:43.127Z,2.03
2023-04-03T09:17:23.320Z,1.77
2023-04-03T09:19:04.150Z,1.58
2023-04-03T09:20:46.076Z,1.70
2023-04-03T09:22:24.764Z,1.85
2023-04-03T09:24:01.452Z,2.25
2023-04-03T09:25:36.854Z,2.00
2023-04-03T09:27:13.061Z,2.00
2023-04-03T09:28:50.091Z,1.80
2023-04-03T09:30:25.738Z,1.65
2023-04-03T09:32:01.717Z,1.40
2023-04-03T09:33:36.123Z,1.70
2023-04-03T09:35:25.227Z,1.60
2023-04-03T09:37:06.840Z,1.98
2023-04-03T09:38:41.675Z,1.60
2023-04-03T09:40:33.335Z,1.70
2023-04-03T09:42:17.254Z,2.00
2023-04-03T09:45:29.695Z,1.85
2023-04-03T09:47:20.488Z,1.90
2023-04-03T09:49:07.398Z,1.55
2023-04-03T09:50:57.200Z,2.10
2023-04-03T09:52:30.376Z,1.90
2023-04-03T09:54:32.342Z,1.60
2023-04-03T09:56:21.730Z,2.03
2023-04-03T09:57:55.312Z,1.75
2023-04-03T09:59:28.353Z,1.70
2023-04-03T10:01:02.979Z,1.63
2023-04-03T10:02:39.417Z,1.70
2023-04-03T10:04:13.669Z,1.60
2023-04-03T10:05:46.697Z,1.77
2023-04-03T10:07:31.971Z,2.00
2023-04-03T10:09:17.207Z,1.60
2023-04-03T10:11:24.113Z,1.88
2023-04-03T10:13:07.422Z,1.58
2023-04-03T10:14:42.220Z,1.52
2023-04-03T10:16:20.177Z,1.73
2023-04-03T10:17:58.726Z,1.60
2023-04-03T10:19:38.780Z,1.80
2023-04-03T10:21:27.041Z,1.60
2023-04-03T10:23:16.208Z,1.88
2023-04-03T10:25:04.770Z,1.58
2023-04-03T10:26:46.257Z,1.50
2023-04-03T10:28:26.047Z,1.90
2023-04-03T10:30:08.256Z,1.45
2023-04-03T10:31:46.996Z,1.83
2023-04-03T10:33:38.055Z,1.70
2023-04-03T10:35:19.998Z,2.35
2023-04-03T10:36:59.465Z,2.42
2023-04-03T10:38:42.905Z,2.47
2023-04-03T10:40:33.769Z,1.73
2023-04-03T10:42:17.907Z,1.50
2023-04-03T10:44:00.752Z,1.73
2023-04-03T10:45:49.251Z,1.60
2023-04-03T10:47:24.574Z,1.63
2023-04-03T10:49:11.193Z,1.67
2023-04-03T10:50:54.215Z,2.00
2023-04-03T10:52:40.860Z,1.50
2023-04-03T10:54:18.846Z,1.85
2023-04-03T10:56:00.111Z,1.48
2023-04-03T10:57:33.323Z,1.50
2023-04-03T10:59:22.416Z,1.60
2023-04-03T11:00:59.574Z,1.63
2023-04-03T11:02:37.644Z,1.70
2023-04-03T11:04:13.520Z,1.40
2023-04-03T11:05:49.285Z,1.45
2023-04-03T11:07:25.633Z,1.63
2023-04-03T11:09:04.264Z,1.40
2023-04-03T11:10:43.609Z,1.80
2023-04-03T11:12:27.023Z,1.60
2023-04-03T11:14:04.955Z,1.70
2023-04-03T11:15:38.766Z,1.48
2023-04-03T11:17:22.540Z,1.92
2023-04-03T11:19:01.228Z,1.50
2023-04-03T11:20:38.582Z,1.50
2023-04-03T11:22:17.286Z,1.50
2023-04-03T11:23:51.456Z,1.60
2023-04-03T11:25:26.859Z,1.55
2023-04-03T11:27:02.094Z,1.50
2023-04-03T11:28:37.846Z,1.58
2023-04-03T11:30:19.573Z,1.52
2023-04-03T11:32:14.574Z,1.80
2023-04-03T11:33:57.663Z,1.50
2023-04-03T11:35:31.844Z,1.80
2023-04-03T11:37:09.571Z,1.60
2023-04-03T11:38:47.845Z,1.50
2023-04-03T11:40:26.333Z,1.77
2023-04-03T11:42:17.094Z,1.48
2023-04-03T11:44:01.017Z,1.50
2023-04-03T11:47:10.690Z,1.42
2023-04-03T11:48:54.229Z,1.48
2023-04-03T11:50:42.122Z,1.70
2023-04-03T11:52:35.459Z,1.30
2023-04-03T11:54:45.831Z,1.60
2023-04-03T11:56:33.169Z,1.25
2023-04-03T11:58:16.994Z,1.42
2023-04-03T12:01:46.767Z,1.50
2023-04-03T12:03:48.191Z,1.52
2023-04-03T12:05:28.999Z,1.50
2023-04-03T12:07:24.296Z,1.70
2023-04-03T12:08:57.506Z,1.45
2023-04-03T12:10:32.630Z,1.38
2023-04-03T12:12:27.875Z,1.40
2023-04-03T12:14:16.493Z,1.40
2023-04-03T12:15:55.734Z,1.42
2023-04-03T12:17:30.579Z,1.75
2023-04-03T12:19:04.974Z,1.55
2023-04-03T12:20:59.926Z,1.50
2023-04-03T12:22:32.979Z,1.50
2023-04-03T12:24:24.957Z,1.45
2023-04-03T12:26:07.551Z,1.60
2023-04-03T12:27:43.430Z,1.50
2023-04-03T12:29:22.585Z,1.92
2023-04-03T12:30:57.584Z,1.65
2023-04-03T12:32:49.291Z,1.50
2023-04-03T12:34:45.724Z,1.60
2023-04-03T12:36:30.443Z,1.83
2023-04-03T12:38:35.671Z,1.60
2023-04-03T12:40:17.090Z,1.50
2023-04-03T12:41:58.129Z,1.75
2023-04-03T12:43:44.499Z,1.95
2023-04-03T12:45:22.246Z,1.60
2023-04-03T12:47:01.573Z,1.50
2023-04-03T12:48:40.436Z,1.60
2023-04-03T12:50:22.470Z,1.60
2023-04-03T12:51:55.759Z,1.60
2023-04-03T12:53:33.223Z,1.40
2023-04-03T12:55:16.307Z,1.60
2023-04-03T12:56:49.496Z,1.50
2023-04-03T12:58:25.258Z,1.50
2023-04-03T12:59:58.573Z,1.55
2023-04-03T13:03:08.584Z,1.83
2023-04-03T13:04:41.684Z,1.70
2023-04-03T13:06:20.986Z,1.40
2023-04-03T13:08:00.523Z,4.65
2023-04-03T13:09:34.136Z,4.47
2023-04-03T13:11:11.364Z,1.40
2023-04-03T13:12:50.371Z,1.40
2023-04-03T13:14:26.265Z,1.42
2023-04-03T13:15:59.926Z,1.70
2023-04-03T13:17:33.588Z,1.50
2023-04-03T13:19:08.078Z,1.48
2023-04-03T13:20:41.111Z,1.60
2023-04-03T13:22:27.792Z,1.67
2023-04-03T13:24:14.725Z,1.50
2023-04-03T13:25:50.507Z,1.70
2023-04-03T13:27:23.722Z,1.35
2023-04-03T13:29:03.913Z,1.77
2023-04-03T13:30:39.139Z,1.95
2023-04-03T13:32:22.100Z,1.70
2023-04-03T13:33:59.829Z,1.63
2023-04-03T13:35:40.077Z,1.55
2023-04-03T13:37:23.272Z,1.60
2023-04-03T13:39:05.932Z,1.52
2023-04-03T13:40:50.467Z,1.48
2023-04-03T13:42:27.689Z,1.85
2023-04-03T13:44:20.457Z,1.63
2023-04-03T13:46:05.961Z,1.60
2023-04-03T13:47:41.813Z,1.75
2023-04-03T13:49:23.194Z,1.63
2023-04-03T13:51:01.657Z,1.85
2023-04-03T13:52:41.611Z,1.50
2023-04-03T13:54:21.095Z,1.60
2023-04-03T13:56:01.384Z,1.52
2023-04-03T13:57:35.668Z,1.92
2023-04-03T13:59:24.873Z,1.73
2023-04-03T14:01:02.490Z,2.05
2023-04-03T14:02:36.375Z,1.92
2023-04-03T14:04:16.664Z,1.80
2023-04-03T14:05:49.699Z,1.70
2023-04-03T14:07:24.995Z,1.40
2023-04-03T14:08:57.927Z,1.73
2023-04-03T14:10:31.586Z,1.67
2023-04-03T14:12:11.352Z,1.65
2023-04-03T14:13:51.634Z,1.60
2023-04-03T14:15:26.361Z,1.90
2023-04-03T14:17:01.813Z,1.33
2023-04-03T14:18:34.838Z,2.35
2023-04-03T14:20:09.290Z,1.63
2023-04-03T14:21:42.306Z,1.52
2023-04-03T14:23:17.094Z,1.63
2023-04-03T14:24:51.467Z,1.70
2023-04-03T14:26:27.483Z,1.58
2023-04-03T14:28:01.090Z,1.90
2023-04-03T14:29:33.991Z,1.60
2023-04-03T14:31:07.995Z,1.50
2023-04-03T14:32:41.352Z,1.50
2023-04-03T14:35:49.307Z,1.50
2023-04-03T14:37:24.578Z,1.70
2023-04-03T14:39:00.310Z,1.70
2023-04-03T14:40:33.357Z,2.13
2023-04-03T14:42:06.611Z,2.03
2023-04-03T14:43:39.755Z,2.00
2023-04-03T14:45:14.729Z,1.60
2023-04-03T14:46:56.133Z,1.83
2023-04-03T14:48:31.929Z,1.40
2023-04-03T14:50:07.083Z,1.67
2023-04-03T14:51:40.021Z,1.73
2023-04-03T14:53:16.219Z,1.58
2023-04-03T14:54:51.438Z,2.00
2023-04-03T14:56:27.451Z,1.80
2023-04-03T14:58:00.420Z,1.67
2023-04-03T14:59:34.058Z,4.47
2023-04-03T15:01:07.349Z,1.58
2023-04-03T15:04:15.936Z,1.70
2023-04-03T15:05:50.926Z,1.60
2023-04-03T15:07:24.386Z,1.60
2023-04-03T15:08:57.597Z,1.52
2023-04-03T15:10:32.924Z,1.65
2023-04-03T15:12:06.019Z,1.73
2023-04-03T15:13:39.931Z,1.55
2023-04-03T15:15:13.404Z,1.70
2023-04-03T15:16:46.996Z,1.52
2023-04-03T15:18:22.564Z,1.50
2023-04-03T15:19:55.585Z,1.60
2023-04-03T15:21:28.657Z,1.92
2023-04-03T15:23:03.003Z,1.90
2023-04-03T15:24:36.071Z,1.60
2023-04-03T15:26:10.685Z,1.58
2023-04-03T15:27:44.360Z,1.63
2023-04-03T15:29:17.423Z,1.80
2023-04-03T15:30:50.494Z,1.98
2023-04-03T15:32:23.559Z,1.73
2023-04-03T15:33:56.568Z,1.60
2023-04-03T15:35:29.581Z,1.50
2023-04-03T15:37:02.683Z,1.50
2023-04-03T15:38:35.677Z,1.70
2023-04-03T15:40:09.824Z,1.60
2023-04-03T15:41:44.117Z,1.80
2023-04-03T15:43:17.721Z,1.92
2023-04-03T15:44:50.770Z,1.92
2023-04-03T15:46:23.904Z,1.83
2023-04-03T15:47:57.036Z,1.77
2023-04-03T15:49:30.382Z,1.70
2023-04-03T15:51:03.627Z,1.90
2023-04-03T15:52:36.752Z,1.90
2023-04-03T15:54:09.793Z,1.80
2023-04-03T15:55:42.910Z,1.80
2023-04-03T15:57:17.352Z,1.80
2023-04-03T15:58:50.626Z,1.70
2023-04-03T16:00:25.255Z,1.63
2023-04-03T16:01:58.448Z,1.77
2023-04-03T16:03:31.914Z,2.10
2023-04-03T16:05:05.559Z,1.88
2023-04-03T16:06:39.542Z,1.85
2023-04-03T16:08:12.888Z,1.80
2023-04-03T16:11:18.700Z,1.60
2023-04-03T16:12:53.038Z,1.60
2023-04-03T16:14:26.033Z,1.50
2023-04-03T16:15:59.225Z,1.80
2023-04-03T16:17:33.970Z,1.77
2023-04-03T16:19:07.737Z,1.60
2023-04-03T16:20:41.155Z,1.80
2023-04-03T16:22:14.535Z,1.92
2023-04-03T16:23:47.610Z,1.65
2023-04-03T16:25:21.352Z,1.67
2023-04-03T16:26:54.578Z,1.70
2023-04-03T16:28:29.097Z,1.48
2023-04-03T16:30:02.194Z,1.60
2023-04-03T16:31:35.932Z,1.60
2023-04-03T16:33:09.024Z,1.50
2023-04-03T16:34:42.855Z,1.77
2023-04-03T16:36:15.957Z,1.52
2023-04-03T16:37:48.910Z,2.28
2023-04-03T16:39:21.970Z,1.90
2023-04-03T16:40:57.806Z,1.90
2023-04-03T16:42:30.972Z,2.13
2023-04-03T16:44:05.494Z,1.70
2023-04-03T16:45:38.649Z,2.15
2023-04-03T16:48:45.221Z,1.50
2023-04-03T16:50:18.440Z,1.83
2023-04-03T16:51:51.526Z,1.63
2023-04-03T16:53:25.522Z,1.85
2023-04-03T16:54:59.774Z,1.60
2023-04-03T16:56:32.977Z,1.95
2023-04-03T16:58:06.056Z,1.50
2023-04-03T16:59:40.451Z,1.52
2023-04-03T17:01:15.371Z,1.77
2023-04-03T17:02:48.721Z,1.38
2023-04-03T17:05:54.689Z,1.67
2023-04-03T17:07:28.348Z,1.52
2023-04-03T17:09:01.545Z,1.42
2023-04-03T17:10:36.336Z,1.50
2023-04-03T17:12:09.485Z,1.60
2023-04-03T17:13:42.663Z,1.67
2023-04-03T17:15:17.349Z,1.85
2023-04-03T17:16:51.381Z,1.52
2023-04-03T17:18:24.393Z,1.98
2023-04-03T17:19:57.915Z,1.70
2023-04-03T17:21:31.069Z,1.60
2023-04-03T17:23:04.109Z,1.58
2023-04-03T17:24:37.519Z,1.60
2023-04-03T17:27:43.350Z,1.38
2023-04-03T17:29:16.309Z,1.58
2023-04-03T17:30:50.609Z,1.88
2023-04-03T17:32:23.907Z,1.55
2023-04-03T17:35:30.663Z,1.55
2023-04-03T17:37:03.905Z,1.75
2023-04-03T17:38:37.722Z,1.80
2023-04-03T17:40:14.276Z,1.40
2023-04-03T17:41:47.547Z,1.63
2023-04-03T17:43:20.617Z,1.60
2023-04-03T17:44:53.686Z,1.50
2023-04-03T17:46:28.487Z,1.40
2023-04-03T17:48:01.509Z,1.63
2023-04-03T17:49:34.514Z,1.58
2023-04-03T17:51:08.968Z,1.77
2023-04-03T17:52:41.918Z,1.30
2023-04-03T17:54:16.367Z,1.73
2023-04-03T17:55:49.350Z,1.50
2023-04-03T17:57:22.468Z,1.80
2023-04-03T17:58:58.077Z,1.60
2023-04-03T18:00:32.245Z,1.50
2023-04-03T18:02:06.617Z,1.60
2023-04-03T18:03:40.117Z,1.85
2023-04-03T18:05:13.288Z,1.60
2023-04-03T18:06:49.335Z,1.98
2023-04-03T18:08:23.406Z,1.50
2023-04-03T18:09:58.825Z,2.00
2023-04-03T18:11:32.282Z,1.63
2023-04-03T18:13:06.502Z,1.58
2023-04-03T18:14:40.001Z,1.90
2023-04-03T18:16:14.204Z,1.73
2023-04-03T18:17:50.381Z,1.58
2023-04-03T18:19:24.059Z,1.55
2023-04-03T18:20:57.158Z,1.75
2023-04-03T18:22:30.755Z,1.60
2023-04-03T18:24:05.546Z,1.52
2023-04-03T18:25:38.914Z,2.10
2023-04-03T18:28:49.197Z,1.63
2023-04-03T18:30:26.471Z,1.70
2023-04-03T18:32:00.077Z,1.77
2023-04-03T18:33:34.588Z,1.90
2023-04-03T18:35:09.266Z,1.50
2023-04-03T18:36:42.380Z,1.50
2023-04-03T18:38:15.379Z,1.58
2023-04-03T18:39:48.367Z,1.70
2023-04-03T18:41:22.497Z,1.60
2023-04-03T18:42:55.555Z,1.23
2023-04-03T18:44:29.344Z,1.90
2023-04-03T18:46:02.857Z,1.52
2023-04-03T18:47:36.919Z,1.60
2023-04-03T18:49:12.158Z,1.30
2023-04-03T18:50:45.367Z,1.50
2023-04-03T18:52:18.588Z,1.50
2023-04-03T18:53:51.594Z,1.60
2023-04-03T18:55:24.630Z,1.50
2023-04-03T18:56:57.842Z,1.42
2023-04-03T18:58:31.109Z,1.52
2023-04-03T19:00:05.306Z,1.75
2023-04-03T19:01:38.333Z,1.40
2023-04-03T19:03:12.760Z,1.58
2023-04-03T19:04:47.917Z,2.00
2023-04-03T19:06:21.650Z,1.88
2023-04-03T19:07:55.680Z,1.60
2023-04-03T19:09:29.421Z,1.65
2023-04-03T19:11:02.535Z,1.50
2023-04-03T19:12:35.724Z,1.50
2023-04-03T19:15:44.869Z,1.77
2023-04-03T19:17:17.933Z,1.40
2023-04-03T19:18:50.951Z,1.50
2023-04-03T19:20:25.498Z,1.60
2023-04-03T19:21:58.500Z,1.70
2023-04-03T19:23:31.686Z,1.58
2023-04-03T19:25:06.361Z,1.50
2023-04-03T19:26:39.676Z,1.80
2023-04-03T19:29:49.959Z,1.33
2023-04-03T19:31:23.258Z,1.30
2023-04-03T19:32:56.999Z,1.40
2023-04-03T19:34:30.065Z,1.33
2023-04-03T19:36:06.104Z,1.30
2023-04-03T19:37:39.143Z,1.27
2023-04-03T19:39:14.054Z,1.42
2023-04-03T19:40:48.633Z,1.20
2023-04-03T19:42:22.099Z,1.58
2023-04-03T19:45:29.257Z,1.38
2023-04-03T19:47:04.017Z,1.25
2023-04-03T19:48:37.576Z,1.40
2023-04-03T19:50:11.721Z,1.35
2023-04-03T19:51:46.069Z,1.30
2023-04-03T19:53:22.159Z,1.20
2023-04-03T19:54:55.135Z,1.15
2023-04-03T19:56:28.297Z,1.30
2023-04-03T19:58:02.443Z,1.20
2023-04-03T19:59:35.707Z,1.30
2023-04-03T20:02:41.812Z,1.30
2023-04-03T20:04:14.784Z,1.33
2023-04-03T20:05:48.312Z,1.08
2023-04-03T20:08:55.886Z,1.35
2023-04-03T20:10:28.861Z,1.55
2023-04-03T20:12:02.066Z,1.58
2023-04-03T20:13:35.334Z,1.50
2023-04-03T20:15:10.244Z,1.10
2023-04-03T20:16:43.231Z,1.30
2023-04-03T20:18:18.791Z,1.40
2023-04-03T20:19:52.014Z,1.40
2023-04-03T20:21:29.667Z,1.52
2023-04-03T20:23:04.304Z,1.30
2023-04-03T20:24:37.225Z,1.50
2023-04-03T20:26:11.145Z,1.65
2023-04-03T20:27:47.502Z,1.30
2023-04-03T20:30:55.121Z,1.40
2023-04-03T20:32:28.652Z,1.40
2023-04-03T20:34:01.994Z,1.40
2023-04-03T20:37:08.413Z,1.05
2023-04-03T20:38:42.955Z,1.30
2023-04-03T20:40:16.335Z,1.60
2023-04-03T20:43:23.286Z,1.20
2023-04-03T20:44:57.334Z,1.50
2023-04-03T20:46:42.194Z,1.70
2023-04-03T20:48:23.552Z,1.30
2023-04-03T20:49:56.712Z,1.30
2023-04-03T20:51:29.639Z,1.83
2023-04-03T20:53:03.348Z,2.08
2023-04-03T20:54:37.705Z,1.40
2023-04-03T20:56:10.858Z,1.40
2023-04-03T20:57:43.929Z,1.40
2023-04-03T20:59:27.408Z,1.45
2023-04-03T21:01:01.075Z,1.40
2023-04-03T21:02:34.606Z,1.33
2023-04-03T21:04:12.096Z,1.38
2023-04-03T21:05:44.995Z,1.50
2023-04-03T21:07:55.898Z,1.58
2023-04-03T21:10:06.044Z,1.63
2023-04-03T21:12:16.575Z,1.07
2023-04-03T21:14:29.470Z,1.40
2023-04-03T21:16:02.199Z,1.70
2023-04-03T21:17:34.357Z,1.50
2023-04-03T21:19:13.726Z,1.30
2023-04-03T21:20:47.358Z,1.40
2023-04-03T21:22:21.804Z,1.50
2023-04-03T21:23:54.948Z,1.30
2023-04-03T21:25:28.619Z,1.48
2023-04-03T21:27:03.625Z,1.48
2023-04-03T21:28:37.035Z,1.42
2023-04-03T21:30:12.817Z,1.50
2023-04-03T21:31:51.022Z,1.33
2023-04-03T21:33:24.107Z,1.50
2023-04-03T21:34:58.806Z,1.67
2023-04-03T21:36:41.031Z,1.30
2023-04-03T21:38:15.333Z,1.60
2023-04-03T21:39:48.332Z,1.70
2023-04-03T21:41:21.574Z,1.50
2023-04-03T21:42:55.256Z,1.35
2023-04-03T21:44:28.688Z,1.45
2023-04-03T21:46:00.880Z,1.40
2023-04-03T21:47:35.581Z,1.50
2023-04-03T21:49:08.838Z,1.80
2023-04-03T21:50:43.317Z,1.50
2023-04-03T21:52:16.981Z,1.50
2023-04-03T21:53:53.356Z,1.47
2023-04-03T21:55:26.894Z,1.57
2023-04-03T21:56:59.815Z,1.40
2023-04-03T21:58:32.749Z,1.50
2023-04-03T22:00:11.153Z,1.60
2023-04-03T22:01:44.561Z,1.60
2023-04-03T22:03:20.892Z,1.80
2023-04-03T22:04:54.430Z,1.70
2023-04-03T22:06:29.159Z,1.60
2023-04-03T22:08:02.115Z,1.60
2023-04-03T22:09:35.098Z,1.60